Flight Track Log - Related Links

Times and Time Zones

All times are in EDT time to prevent confusion due to time zone crossing. See the SKW5638 flight status page for this flight to view local times or setup timezone preferences in your user account.

Time Position Orientation Groundspeed Altitude Reporting Facility
EDT Latitude Longitude Course Direction KTS MPH feet Rate Location/Type
Sun 08:43:19 PM 34.4242 -119.8911 264° West 131 151 1,500  Level Los Angeles Center
Sun 08:44:21 PM 34.4158 -119.9458 260° West 154 177 3,100 1,452 Climbing Los Angeles Center
Sun 08:45:23 PM 34.4100 -120.0022 263° West 164 189 4,500 1,306 Climbing Los Angeles Center
Sun 08:46:25 PM 34.4050 -120.0658 265° West 183 211 5,800 1,452 Climbing Los Angeles Center
Sun 08:47:27 PM 34.4028 -120.1383 268° West 194 223 7,500 1,452 Climbing Los Angeles Center
Sun 08:48:29 PM 34.4467 -120.1786 323° Northwest 202 232 8,800 1,258 Climbing Los Angeles Center
Sun 08:49:31 PM 34.4925 -120.2147 327° Northwest 195 224 10,100 1,113 Climbing Los Angeles Center
Sun 08:50:33 PM 34.5381 -120.2522 326° Northwest 198 228 11,100 1,024 Climbing Los Angeles Center
Sun 08:51:34 PM 34.5900 -120.2964 325° Northwest 201 231 12,200 927 Climbing Los Angeles Center
Sun 08:52:36 PM 34.6392 -120.3353 327° Northwest 211 243 13,000 823 Climbing Los Angeles Center
Sun 08:53:38 PM 34.6906 -120.3772 326° Northwest 223 257 13,900 774 Climbing Los Angeles Center
Sun 08:54:40 PM 34.7486 -120.4264 325° Northwest 230 265 14,600 726 Climbing Los Angeles Center
Sun 08:55:42 PM 34.8028 -120.4714 326° Northwest 234 269 15,400 780 Climbing Los Angeles Center
Sun 08:56:43 PM 34.8597 -120.5183 326° Northwest 228 262 16,200 585 Climbing Los Angeles Center
Sun 08:57:45 PM 34.9106 -120.5628 324° Northwest 225 259 16,600 435 Climbing Los Angeles Center
Sun 08:58:47 PM 34.9622 -120.6064 325° Northwest 226 260 17,100 435 Climbing Los Angeles Center
Sun 08:59:49 PM 35.0139 -120.6503 325° Northwest 227 261 17,500 484 Climbing Los Angeles Center
Sun 09:00:51 PM 35.0681 -120.6953 326° Northwest 234 269 18,100 927 Climbing Los Angeles Center
Sun 09:01:52 PM 35.1306 -120.7481 325° Northwest 225 259 19,400 1,024 Climbing Los Angeles Center
Sun 09:02:54 PM 35.1819 -120.7897 326° Northwest 221 254 20,200 726 Climbing Los Angeles Center
Sun 09:03:56 PM 35.2225 -120.8239 325° Northwest 222 255 20,900 726 Climbing Los Angeles Center
Sun 09:04:58 PM 35.2836 -120.8761 325° Northwest 223 257 21,700 677 Climbing Los Angeles Center
Sun 09:06:00 PM 35.3364 -120.9208 325° Northwest 228 262 22,300 629 Climbing Los Angeles Center
Sun 09:06:43 PM 35.3789 -120.9567 325° Northwest 234 269 22,800 692 Climbing Oakland Center
Sun 09:07:44 PM 35.4342 -121.0014 327° Northwest 235 270 23,500 585 Climbing Oakland Center
Sun 09:08:46 PM 35.4889 -121.0483 325° Northwest 238 274 24,000 244 Climbing Oakland Center
Sun 09:09:47 PM 35.5469 -121.0983 325° Northwest 249 287 24,000  Level Oakland Center
Sun 09:10:48 PM 35.6092 -121.1506 326° Northwest 264 304 24,000  Level Oakland Center
Sun 09:11:50 PM 35.6714 -121.2031 326° Northwest 270 311 24,000  Level Oakland Center
Sun 09:12:51 PM 35.7458 -121.2681 325° Northwest 272 313 24,000  Level Oakland Center
Sun 09:13:52 PM 35.8083 -121.3208 326° Northwest 273 314 24,000 -98 Level Oakland Center
Sun 09:14:53 PM 35.8714 -121.3747 325° Northwest 275 316 23,800 -488 Descending Oakland Center
Sun 09:15:55 PM 35.9386 -121.4333 325° Northwest 290 334 23,000 -634 Descending Oakland Center
Sun 09:16:56 PM 36.0092 -121.4942 325° Northwest 304 350 22,500 -590 Descending Oakland Center
Sun 09:17:57 PM 36.0792 -121.5556 325° Northwest 308 354 21,800 -732 Descending Oakland Center
Sun 09:18:59 PM 36.1517 -121.6169 326° Northwest 314 361 21,000 -780 Descending Oakland Center
Sun 09:20:00 PM 36.2278 -121.6700 331° Northwest 314 361 20,200 -836 Descending Oakland Center
Sun 09:21:01 PM 36.3119 -121.7094 339° North 320 368 19,300 -947 Descending Oakland Center
Sun 09:21:54 PM 36.4000 -121.7500 340° North 313 360 18,400 -903 Descending Northern Cal TRACON
Sun 09:22:54 PM 36.4667 -121.8000 329° Northwest 290 334 17,600 -950 Descending Northern Cal TRACON
Sun 09:23:54 PM 36.5500 -121.8333 342° North 283 326 16,500 -1,500 Descending Northern Cal TRACON
Sun 09:24:54 PM 36.6167 -121.8667 338° Northwest 281 323 14,600 -2,050 Descending Northern Cal TRACON
Sun 09:25:54 PM 36.6833 -121.9000 338° Northwest 283 326 12,400 -2,200 Descending Northern Cal TRACON
Sun 09:26:54 PM 36.7667 -121.9500 334° Northwest 286 329 10,200 -2,050 Descending Northern Cal TRACON
Sun 09:27:54 PM 36.8333 -121.9833 338° Northwest 278 320 8,300 -1,150 Descending Northern Cal TRACON
Sun 09:28:54 PM 36.9000 -122.0167 338° Northwest 254 292 7,900 -308 Descending Northern Cal TRACON
Sun 09:29:12 PM 36.9144 -122.0275 329° Northwest 255 293 7,900 76 Level Oakland Center
Sun 09:30:13 PM 36.9764 -122.0581 338° Northwest 240 276 8,000 49 Climbing Oakland Center
Sun 09:31:14 PM 37.0378 -122.0878 339° North 238 274 8,000 49 Level Oakland Center
Sun 09:32:16 PM 37.1039 -122.1069 347° North 242 278 8,100 49 Climbing Oakland Center
Sun 09:33:17 PM 37.1681 -122.1264 346° North 239 275 8,100 -49 Level Oakland Center
Sun 09:34:18 PM 37.2331 -122.1494 344° North 242 278 8,000 -443 Descending Oakland Center
Sun 09:35:19 PM 37.2992 -122.1711 345° North 247 284 7,200 -1,024 Descending Oakland Center
Sun 09:36:21 PM 37.3878 -122.1986 346° North 272 313 5,900 -1,122 Descending Oakland Center
Sun 09:37:22 PM 37.4553 -122.1742 16° North 269 310 4,900 -984 Descending Oakland Center
Sun 09:38:23 PM 37.5142 -122.1767 358° North 248 285 3,900 -984 Descending Oakland Center
Sun 09:39:24 PM 37.5514 -122.2225 316° Northwest 204 235 2,900 -984 Descending Oakland Center

Login

Don't have an account? Register now (free) for customized features, flight alerts, and more!